Time;durP1;ratioP1;P1;durP2;ratioP2;P2;SDS_P1;SDS_P2;PMS_P1;PMS_P2;Temp;Humidity;BMP_temperature;BMP_pressure;BME280_temperature;BME280_humidity;BME280_pressure;Samples;Min_cycle;Max_cycle;Signal;HPM_P1;HPM_P2
2023/06/16 03:54:27;;;;;;;8.05;4.60;;;;;;;16.61;99.06;100010.59;5830478;28;20152;-84
2023/06/16 03:57:31;;;;;;;6.18;4.90;;;;;;;16.59;99.67;100017.34;5244568;33;33052;-84
2023/06/16 04:00:35;;;;;;;5.87;4.40;;;;;;;16.62;99.22;100008.75;5244242;33;34378;-84
2023/06/16 04:03:38;;;;;;;4.95;4.28;;;;;;;16.71;99.05;100004.66;5253897;33;33483;-84
2023/06/16 04:06:41;;;;;;;8.30;4.45;;;;;;;16.66;98.85;100009.94;5230061;33;32941;-85
2023/06/16 04:09:45;;;;;;;5.95;4.20;;;;;;;16.72;99.96;100000.88;5241487;33;33506;-84
2023/06/16 04:12:48;;;;;;;5.40;4.15;;;;;;;16.70;99.86;100008.41;5241529;33;33275;-85
2023/06/16 04:15:51;;;;;;;7.10;4.03;;;;;;;16.82;98.59;100001.22;5241230;33;33533;-86
2023/06/16 04:18:54;;;;;;;6.18;4.43;;;;;;;16.86;98.81;100004.31;5253301;33;34088;-86
2023/06/16 04:21:58;;;;;;;5.10;4.15;;;;;;;16.98;98.38;100006.00;5229831;33;33458;-86
2023/06/16 04:25:02;;;;;;;6.78;4.90;;;;;;;16.98;99.25;99997.84;5241276;33;33372;-86
2023/06/16 04:28:07;;;;;;;8.82;4.28;;;;;;;17.05;97.69;100002.38;5241147;33;33473;-86
2023/06/16 04:31:12;;;;;;;5.82;4.22;;;;;;;17.11;97.39;100004.16;5240714;33;33519;-86
2023/06/16 04:34:15;;;;;;;9.85;5.35;;;;;;;17.15;96.99;100010.81;5253743;33;33597;-86
2023/06/16 04:37:18;;;;;;;6.60;4.50;;;;;;;17.20;95.38;100003.63;5240419;33;32934;-86
2023/06/16 04:40:21;;;;;;;5.22;4.25;;;;;;;17.31;94.83;100002.00;5230888;33;34113;-86
2023/06/16 04:43:24;;;;;;;5.75;4.82;;;;;;;17.47;92.56;99997.81;5241199;33;33262;-86
2023/06/16 04:46:27;;;;;;;5.93;3.95;;;;;;;17.53;92.81;100001.50;5229969;33;33071;-86
2023/06/16 04:49:30;;;;;;;6.32;4.22;;;;;;;17.77;91.67;99995.03;5229677;33;33420;-89
2023/06/16 04:52:33;;;;;;;5.28;4.22;;;;;;;17.97;90.72;99996.62;5242395;33;33155;-90
2023/06/16 04:55:37;;;;;;;8.10;4.37;;;;;;;18.09;91.21;99994.72;5224305;34;33059;-90
2023/06/16 04:58:41;;;;;;;5.55;4.22;;;;;;;18.17;89.92;99997.09;5234506;34;33370;-87
2023/06/16 05:01:45;;;;;;;4.90;4.18;;;;;;;18.43;85.91;99993.06;5224272;34;33213;-86
2023/06/16 05:04:51;;;;;;;6.65;4.62;;;;;;;18.54;84.95;99992.22;5237886;34;33347;-86
2023/06/16 05:07:54;;;;;;;7.55;4.40;;;;;;;18.72;83.42;99991.25;5228017;34;33404;-87
2023/06/16 05:10:57;;;;;;;9.40;4.62;;;;;;;18.87;80.51;99992.66;5252395;34;34455;-86
2023/06/16 05:13:59;;;;;;;5.78;4.45;;;;;;;18.80;79.40;99993.59;5242402;34;34908;-87
2023/06/16 05:17:03;;;;;;;8.57;4.32;;;;;;;18.96;79.33;99988.47;5239679;34;32922;-86
2023/06/16 05:20:06;;;;;;;7.82;4.60;;;;;;;18.98;78.03;99994.50;5213713;34;33128;-86
2023/06/16 05:23:10;;;;;;;8.35;4.80;;;;;;;19.08;78.52;99988.44;5235558;34;34145;-86
2023/06/16 05:26:13;;;;;;;7.57;5.28;;;;;;;19.22;77.12;99995.25;5211759;34;33933;-86
2023/06/16 05:29:16;;;;;;;10.60;4.97;;;;;;;19.29;77.02;99993.19;5222793;34;33369;-86
2023/06/16 05:32:21;;;;;;;12.37;6.95;;;;;;;19.32;75.27;99994.59;5224767;33;35069;-86
2023/06/16 05:35:24;;;;;;;14.40;5.15;;;;;;;19.40;75.96;99995.03;5248305;33;34754;-86
2023/06/16 05:38:27;;;;;;;6.50;4.68;;;;;;;19.54;73.79;99992.84;5222624;33;33576;-86
2023/06/16 05:41:31;;;;;;;5.80;4.45;;;;;;;19.47;74.66;99992.16;5224401;33;33992;-84
2023/06/16 05:44:33;;;;;;;5.72;4.40;;;;;;;19.52;74.47;99994.16;5237139;34;34653;-86
2023/06/16 05:47:37;;;;;;;7.30;4.22;;;;;;;19.65;73.75;100002.87;5240624;34;33437;-86
2023/06/16 05:50:41;;;;;;;6.40;4.32;;;;;;;19.76;72.78;100003.06;5237823;33;33532;-86
2023/06/16 05:53:44;;;;;;;8.35;4.32;;;;;;;20.06;72.93;100006.25;5248236;33;34101;-86
2023/06/16 05:56:47;;;;;;;9.40;4.65;;;;;;;20.29;71.35;100009.91;5249994;33;33684;-86
2023/06/16 05:59:50;;;;;;;8.20;4.60;;;;;;;20.52;71.47;100008.84;5240064;34;33629;-85
2023/06/16 06:02:53;;;;;;;6.18;4.62;;;;;;;20.75;70.13;100003.19;5224676;34;33006;-85
2023/06/16 06:06:01;;;;;;;5.50;4.25;;;;;;;20.77;68.84;100008.41;5236281;34;33567;-85
2023/06/16 06:09:04;;;;;;;8.50;4.85;;;;;;;21.02;67.78;100005.97;5237138;34;34306;-85
2023/06/16 06:12:09;;;;;;;4.80;4.30;;;;;;;21.26;65.79;100002.94;5213636;34;33660;-85
2023/06/16 06:15:12;;;;;;;7.18;4.55;;;;;;;21.48;65.58;99998.28;5236051;34;34066;-85
2023/06/16 06:18:16;;;;;;;9.10;4.70;;;;;;;21.65;64.26;100009.13;5224604;34;33227;-85
2023/06/16 06:21:19;;;;;;;10.77;4.32;;;;;;;21.65;63.23;100002.81;5238165;34;33237;-85
2023/06/16 06:24:23;;;;;;;6.07;4.55;;;;;;;21.90;62.95;99999.47;5227380;34;33317;-85
2023/06/16 06:27:29;;;;;;;7.28;4.15;;;;;;;21.61;63.13;100001.69;5239696;34;33492;-85
2023/06/16 06:30:32;;;;;;;9.27;3.83;;;;;;;21.79;62.33;100003.19;5237672;34;33402;-84
2023/06/16 06:33:35;;;;;;;8.95;4.80;;;;;;;21.73;62.04;100003.19;5226988;34;34400;-84
2023/06/16 06:36:39;;;;;;;7.57;4.62;;;;;;;21.65;63.15;100003.66;5236908;34;33187;-84
2023/06/16 06:39:42;;;;;;;7.47;4.28;;;;;;;21.82;63.57;100008.16;5221700;34;33540;-84
2023/06/16 06:42:46;;;;;;;8.52;4.57;;;;;;;22.13;62.52;100006.50;5235618;34;32899;-84
2023/06/16 06:45:57;;;;;;;8.15;4.78;;;;;;;21.98;62.36;100020.09;5214589;34;33396;-85
2023/06/16 06:49:00;;;;;;;7.07;4.70;;;;;;;21.90;64.52;100010.44;5233208;34;33568;-85
2023/06/16 06:52:06;;;;;;;10.30;4.97;;;;;;;21.99;64.71;100019.00;5236804;34;32906;-89
2023/06/16 06:55:09;;;;;;;6.80;4.55;;;;;;;21.93;65.50;100020.88;5224357;34;33367;-89
2023/06/16 06:58:12;;;;;;;6.25;4.07;;;;;;;21.91;64.42;100017.59;5216802;34;33668;-89
2023/06/16 07:01:15;;;;;;;7.78;4.65;;;;;;;21.93;64.54;100016.19;5202068;34;33299;-83
2023/06/16 07:04:18;;;;;;;5.00;4.20;;;;;;;22.02;64.28;100018.47;5223552;33;32524;-85
2023/06/16 07:07:21;;;;;;;5.47;4.20;;;;;;;22.32;63.54;100018.72;5229529;34;33599;-85
2023/06/16 07:10:23;;;;;;;8.32;4.10;;;;;;;22.35;63.16;100017.38;5216954;34;34689;-85
2023/06/16 07:13:26;;;;;;;7.57;4.60;;;;;;;22.35;62.76;100022.88;5244940;33;33084;-85
2023/06/16 07:16:29;;;;;;;6.78;4.50;;;;;;;22.02;64.57;100026.69;5263054;33;33527;-85
2023/06/16 07:19:32;;;;;;;8.63;4.45;;;;;;;22.16;64.56;100033.37;5222961;33;31859;-85
2023/06/16 07:22:35;;;;;;;6.37;4.37;;;;;;;22.35;64.16;100026.44;5232434;33;34055;-85
2023/06/16 07:25:38;;;;;;;9.40;4.75;;;;;;;22.27;64.17;100026.91;5234919;33;33373;-85
2023/06/16 07:28:42;;;;;;;7.50;4.22;;;;;;;22.39;64.04;100019.31;5225893;33;33393;-85
2023/06/16 07:31:45;;;;;;;6.22;4.47;;;;;;;22.38;63.62;100025.91;5235380;33;34220;-85
2023/06/16 07:34:48;;;;;;;7.12;4.68;;;;;;;22.47;63.25;100025.41;5222379;34;33287;-85
2023/06/16 07:37:51;;;;;;;8.93;4.68;;;;;;;22.59;62.02;100029.59;5235349;33;34130;-85
2023/06/16 07:40:54;;;;;;;7.35;4.28;;;;;;;22.60;62.90;100025.75;5254484;33;33282;-85
2023/06/16 07:43:57;;;;;;;6.20;4.40;;;;;;;22.60;64.77;100031.22;5265106;33;33617;-84
2023/06/16 07:47:00;;;;;;;9.25;5.20;;;;;;;22.80;63.58;100024.19;5227760;34;33106;-84
2023/06/16 07:50:03;;;;;;;9.25;4.65;;;;;;;22.76;63.84;100034.91;5247549;33;33602;-85
2023/06/16 07:53:06;;;;;;;7.60;4.68;;;;;;;22.46;64.09;100031.97;5239286;33;34675;-85
2023/06/16 07:56:10;;;;;;;7.37;4.65;;;;;;;22.48;63.85;100032.53;5256149;33;34573;-85
2023/06/16 07:59:12;;;;;;;10.98;4.82;;;;;;;22.42;63.17;100035.25;5263323;33;33707;-85
2023/06/16 08:02:15;;;;;;;7.95;4.65;;;;;;;22.30;64.15;100039.28;5251570;33;33730;-85
2023/06/16 08:05:20;;;;;;;8.57;4.87;;;;;;;22.20;63.88;100042.78;5240431;33;33196;-85
2023/06/16 08:08:26;;;;;;;10.77;5.15;;;;;;;22.24;63.45;100043.91;5225792;33;34272;-84
2023/06/16 08:11:29;;;;;;;4.65;4.12;;;;;;;22.22;64.78;100037.03;5224939;33;33510;-85
2023/06/16 08:14:32;;;;;;;7.68;4.60;;;;;;;22.06;64.29;100036.06;5238489;33;34184;-84
2023/06/16 08:17:36;;;;;;;6.62;4.32;;;;;;;22.42;64.07;100037.97;5251059;33;33562;-85
2023/06/16 08:20:39;;;;;;;6.75;4.80;;;;;;;22.46;63.97;100037.44;5239687;33;32935;-85
2023/06/16 08:23:42;;;;;;;8.98;4.95;;;;;;;22.50;63.49;100036.66;5228207;34;33323;-85
2023/06/16 08:26:45;;;;;;;9.73;5.47;;;;;;;22.59;62.38;100035.06;5224807;33;33618;-85
2023/06/16 08:29:48;;;;;;;8.45;4.72;;;;;;;22.59;62.01;100032.34;5223087;33;33939;-85
2023/06/16 08:32:53;;;;;;;8.23;4.90;;;;;;;22.71;62.26;100031.28;5219738;33;33435;-85
2023/06/16 08:35:56;;;;;;;9.20;5.10;;;;;;;22.82;58.86;100036.56;5221987;33;33166;-85
2023/06/16 08:38:59;;;;;;;13.25;4.50;;;;;;;22.95;58.07;100038.03;5237882;33;34253;-85
2023/06/16 08:42:03;;;;;;;6.32;4.60;;;;;;;23.37;57.85;100031.59;5252025;33;33174;-85
2023/06/16 08:45:06;;;;;;;7.62;4.00;;;;;;;23.71;57.61;100034.69;5242186;33;33327;-84
2023/06/16 08:48:11;;;;;;;6.03;4.18;;;;;;;23.69;53.85;100033.25;5251707;33;34478;-85
2023/06/16 08:51:18;;;;;;;6.45;4.50;;;;;;;23.63;54.00;100032.44;5228924;34;34033;-85
2023/06/16 08:54:24;;;;;;;7.05;4.20;;;;;;;23.86;54.15;100025.62;5228162;33;34594;-85
2023/06/16 08:57:30;;;;;;;6.65;4.47;;;;;;;24.36;52.12;100040.44;5235041;33;33245;-85
2023/06/16 09:00:33;;;;;;;5.45;3.85;;;;;;;24.11;51.92;100035.81;5232231;34;33362;-85
2023/06/16 09:03:37;;;;;;;11.40;4.43;;;;;;;24.27;50.87;100035.78;5220195;34;33514;-89
2023/06/16 09:06:48;;;;;;;6.12;3.92;;;;;;;24.48;50.21;100025.59;5209551;34;33335;-89
2023/06/16 09:09:51;;;;;;;4.53;3.65;;;;;;;24.42;48.99;100035.75;5234290;33;33429;-85
2023/06/16 09:12:59;;;;;;;5.45;3.97;;;;;;;24.34;50.19;100031.66;5222155;34;33297;-85
2023/06/16 09:16:03;;;;;;;5.70;3.73;;;;;;;24.89;48.25;100032.63;5235367;34;32961;-85
2023/06/16 09:19:08;;;;;;;4.78;3.87;;;;;;;25.30;47.80;100031.62;5222781;34;33345;-85
2023/06/16 09:22:18;;;;;;;5.05;3.67;;;;;;;25.29;48.82;100027.22;5222570;34;33438;-85
2023/06/16 09:25:22;;;;;;;7.53;4.22;;;;;;;25.46;46.00;100030.44;5235785;33;33156;-85
2023/06/16 09:28:36;;;;;;;8.52;3.80;;;;;;;25.54;45.43;100031.78;5237752;33;33232;-85
2023/06/16 09:31:40;;;;;;;6.65;3.80;;;;;;;25.70;45.51;100025.03;5217782;34;33485;-85
2023/06/16 09:34:46;;;;;;;4.75;3.50;;;;;;;25.88;45.70;100026.28;5210807;33;33123;-85
2023/06/16 09:37:54;;;;;;;6.68;3.97;;;;;;;25.82;44.88;100021.94;5233486;33;33137;-85
2023/06/16 09:41:07;;;;;;;8.93;4.12;;;;;;;25.85;44.16;100024.13;5236738;33;33126;-85
2023/06/16 09:44:11;;;;;;;7.85;4.20;;;;;;;25.79;45.34;100026.06;5238238;33;33045;-85
2023/06/16 09:47:14;;;;;;;4.20;3.80;;;;;;;25.94;43.08;100022.38;5240681;33;34264;-85
2023/06/16 09:50:19;;;;;;;3.78;3.37;;;;;;;26.21;43.06;100018.31;5215762;33;33357;-85
2023/06/16 09:53:25;;;;;;;3.90;3.20;;;;;;;26.34;42.97;100012.09;5244432;33;34420;-85
2023/06/16 09:56:29;;;;;;;6.22;3.53;;;;;;;26.68;42.62;100008.44;5251133;33;33337;-84
2023/06/16 09:59:32;;;;;;;7.22;3.67;;;;;;;27.05;40.58;100006.87;5225195;34;32885;-85
2023/06/16 10:02:36;;;;;;;4.20;3.60;;;;;;;26.89;39.45;100009.84;5228735;33;33256;-84
2023/06/16 10:05:40;;;;;;;3.83;3.17;;;;;;;27.07;40.25;99996.34;5247500;33;34482;-84
2023/06/16 10:08:44;;;;;;;3.97;3.47;;;;;;;27.23;37.53;99997.81;5221324;33;33192;-84
2023/06/16 10:11:48;;;;;;;3.70;3.40;;;;;;;27.23;36.78;99997.81;5240978;34;33536;-84
2023/06/16 10:14:51;;;;;;;4.50;3.58;;;;;;;27.29;38.86;99988.34;5234689;34;36192;-84
2023/06/16 10:17:55;;;;;;;3.87;3.47;;;;;;;27.50;39.56;99982.50;5237346;33;34271;-84
2023/06/16 10:20:59;;;;;;;4.47;3.70;;;;;;;28.08;38.14;99979.34;5226427;33;33344;-84
2023/06/16 10:24:03;;;;;;;6.20;3.42;;;;;;;28.34;36.22;99987.16;5237523;33;33393;-84
2023/06/16 10:27:08;;;;;;;4.10;3.55;;;;;;;27.54;37.92;99978.00;5233967;33;33135;-85
2023/06/16 10:30:16;;;;;;;3.83;3.40;;;;;;;27.98;37.91;99966.50;5229764;34;33437;-85
2023/06/16 10:33:22;;;;;;;3.90;3.45;;;;;;;28.03;37.86;99971.13;5227886;34;34076;-85
2023/06/16 10:36:36;;;;;;;4.70;3.72;;;;;;;27.96;37.74;99960.47;5234484;34;34896;-85
2023/06/16 10:40:04;;;;;;;6.00;3.33;;;;;;;28.12;39.59;99972.06;5231373;34;33714;-86
2023/06/16 10:43:10;;;;;;;4.82;3.50;;;;;;;28.57;38.47;99965.97;5238637;34;33804;-86
2023/06/16 10:46:18;;;;;;;4.78;3.55;;;;;;;28.61;36.83;99972.56;5253759;34;34988;-86
2023/06/16 10:49:26;;;;;;;4.03;3.10;;;;;;;28.03;36.99;99969.19;5235475;34;34727;-86
2023/06/16 10:52:29;;;;;;;4.60;3.65;;;;;;;27.70;37.54;99961.97;5237499;34;33413;-86
2023/06/16 10:55:36;;;;;;;4.03;3.30;;;;;;;27.42;38.60;99964.63;5239643;34;33235;-86
2023/06/16 10:58:38;;;;;;;3.55;3.25;;;;;;;27.52;38.42;99969.19;5241480;34;33512;-86
2023/06/16 11:01:46;;;;;;;6.90;4.07;;;;;;;27.68;38.66;99961.47;5247570;33;33205;-86
2023/06/16 11:05:07;;;;;;;8.27;4.07;;;;;;;28.09;39.69;99955.25;5236005;34;33340;-86
2023/06/16 11:08:11;;;;;;;4.07;3.62;;;;;;;28.19;39.51;99955.87;5226257;33;34047;-86
2023/06/16 11:11:13;;;;;;;5.82;3.53;;;;;;;27.71;40.36;99947.84;5235498;34;34110;-86
2023/06/16 11:14:17;;;;;;;5.30;3.92;;;;;;;27.00;41.50;99957.19;5235488;34;33768;-86
2023/06/16 11:17:20;;;;;;;4.15;3.55;;;;;;;27.34;41.42;99948.72;5236727;34;33419;-85
2023/06/16 11:20:23;;;;;;;5.62;3.92;;;;;;;27.72;40.87;99945.91;5237893;33;33126;-86
2023/06/16 11:23:26;;;;;;;9.02;4.18;;;;;;;28.30;39.59;99950.97;5230356;33;33930;-86
2023/06/16 11:26:29;;;;;;;4.45;4.05;;;;;;;28.35;39.17;99950.06;5236818;34;34416;-86
2023/06/16 11:29:32;;;;;;;6.10;3.83;;;;;;;29.06;38.20;99945.00;5217186;33;34451;-86
2023/06/16 11:32:37;;;;;;;4.87;3.60;;;;;;;30.35;36.53;99946.25;5234069;33;34390;-85
2023/06/16 11:35:40;;;;;;;8.05;3.47;;;;;;;30.82;34.38;99938.25;5228192;34;33281;-86
2023/06/16 11:38:45;;;;;;;3.87;3.20;;;;;;;30.25;35.75;99930.69;5238722;33;34006;-86
2023/06/16 11:41:53;;;;;;;4.32;3.55;;;;;;;29.67;36.21;99934.44;5240954;33;33884;-86
2023/06/16 11:45:04;;;;;;;5.62;3.33;;;;;;;29.47;36.77;99942.09;5227081;33;34529;-90
2023/06/16 11:48:09;;;;;;;3.60;3.17;;;;;;;29.43;36.75;99941.09;5239919;33;33279;-90
2023/06/16 11:51:13;;;;;;;6.30;3.42;;;;;;;29.09;36.67;99930.53;5239872;33;33537;-87
2023/06/16 11:54:16;;;;;;;4.72;3.30;;;;;;;30.11;36.39;99935.50;5256458;33;33508;-86
2023/06/16 11:57:19;;;;;;;3.80;3.40;;;;;;;30.79;33.82;99927.78;5247905;33;33467;-86
2023/06/16 12:00:27;;;;;;;3.85;3.20;;;;;;;32.75;31.17;99919.69;5227034;33;33465;-87
2023/06/16 12:03:33;;;;;;;7.95;3.55;;;;;;;34.42;28.26;99912.19;5237159;33;33526;-87
2023/06/16 12:06:37;;;;;;;5.82;3.47;;;;;;;35.78;28.68;99904.31;5237005;33;33036;-86
2023/06/16 12:09:40;;;;;;;3.70;3.30;;;;;;;36.38;25.89;99898.62;5248200;33;33976;-87
2023/06/16 12:12:44;;;;;;;4.87;3.10;;;;;;;36.85;25.78;99906.16;5252255;33;33633;-84
2023/06/16 12:15:47;;;;;;;4.20;2.58;;;;;;;38.45;23.72;99894.44;5250206;33;33233;-85
2023/06/16 12:18:51;;;;;;;5.05;3.22;;;;;;;40.46;22.18;99897.59;5230753;33;34513;-85
2023/06/16 12:22:03;;;;;;;4.43;2.55;;;;;;;40.29;20.94;99889.81;5234282;33;34146;-85
2023/06/16 12:25:13;;;;;;;2.90;2.67;;;;;;;40.26;21.33;99890.59;5236232;33;33510;-85
2023/06/16 12:28:20;;;;;;;6.70;2.90;;;;;;;39.56;21.41;99890.28;5247294;33;34471;-85
2023/06/16 12:31:26;;;;;;;5.80;2.67;;;;;;;38.32;22.03;99884.53;5232337;33;33078;-85
2023/06/16 12:34:32;;;;;;;4.12;2.97;;;;;;;38.31;22.11;99880.13;5233727;34;33669;-85
2023/06/16 12:37:40;;;;;;;3.27;2.63;;;;;;;38.22;22.39;99893.63;5236050;33;34374;-85
2023/06/16 12:40:43;;;;;;;4.43;2.75;;;;;;;38.21;22.14;99883.59;5238216;33;33425;-85
2023/06/16 12:43:52;;;;;;;3.28;2.97;;;;;;;37.96;22.31;99883.97;5236244;33;33704;-85
2023/06/16 12:46:55;;;;;;;3.92;3.25;;;;;;;38.58;21.87;99882.97;5246962;33;33117;-85
2023/06/16 12:50:00;;;;;;;3.40;2.90;;;;;;;38.44;22.43;99870.31;5227752;33;34118;-85
2023/06/16 12:53:05;;;;;;;3.42;2.95;;;;;;;36.43;24.67;99873.94;5240996;33;33370;-85
2023/06/16 12:56:09;;;;;;;3.40;2.97;;;;;;;38.06;22.98;99879.72;5235430;33;33754;-85
2023/06/16 12:59:14;;;;;;;2.87;2.60;;;;;;;37.92;23.48;99880.25;5206824;34;33277;-85
2023/06/16 13:02:18;;;;;;;3.50;2.70;;;;;;;38.15;23.64;99871.03;5223345;34;33441;-85
2023/06/16 13:05:21;;;;;;;3.17;2.90;;;;;;;38.15;22.95;99871.84;5217950;34;34110;-85
2023/06/16 13:08:24;;;;;;;3.20;2.90;;;;;;;37.11;23.71;99864.25;5206301;34;33232;-86
2023/06/16 13:11:27;;;;;;;3.80;2.95;;;;;;;38.30;23.12;99862.44;5206156;34;34004;-85
2023/06/16 13:14:30;;;;;;;4.93;2.87;;;;;;;38.18;22.59;99856.22;5206098;34;32893;-85
2023/06/16 13:17:33;;;;;;;3.20;2.90;;;;;;;40.37;21.12;99854.81;5206549;34;33214;-85
2023/06/16 13:20:38;;;;;;;4.25;3.28;;;;;;;37.76;22.32;99855.09;5206104;34;33017;-85
2023/06/16 13:23:44;;;;;;;3.85;3.33;;;;;;;33.85;27.20;99855.22;5206134;34;33274;-89
2023/06/16 13:26:47;;;;;;;8.50;3.35;;;;;;;32.87;28.53;99856.81;5218916;34;33455;-89
2023/06/16 13:29:50;;;;;;;4.62;3.05;;;;;;;34.92;27.23;99848.66;5217605;34;34139;-86
2023/06/16 13:32:53;;;;;;;4.97;3.08;;;;;;;36.73;25.10;99856.59;5212319;34;33435;-86
2023/06/16 13:35:56;;;;;;;5.43;2.83;;;;;;;35.57;25.72;99854.13;5222481;34;34439;-86
2023/06/16 13:38:58;;;;;;;5.25;3.60;;;;;;;36.75;24.61;99841.03;5209644;34;34299;-86
2023/06/16 13:42:04;;;;;;;3.67;3.30;;;;;;;38.02;22.68;99847.91;5206328;34;31874;-85
2023/06/16 13:45:07;;;;;;;3.42;3.12;;;;;;;35.52;25.39;99849.59;5211018;34;33240;-85
2023/06/16 13:48:11;;;;;;;6.15;3.30;;;;;;;33.27;28.63;99850.75;5220334;34;33770;-85
2023/06/16 13:51:14;;;;;;;4.45;3.67;;;;;;;31.46;31.70;99851.41;5209432;34;33648;-85
2023/06/16 13:54:18;;;;;;;6.12;4.12;;;;;;;30.58;33.45;99844.19;5224844;34;33055;-85
2023/06/16 13:57:20;;;;;;;4.10;3.72;;;;;;;30.15;34.76;99842.91;5208339;34;33508;-85
2023/06/16 14:00:23;;;;;;;5.95;3.97;;;;;;;30.11;34.59;99843.88;5219717;34;33889;-85
2023/06/16 14:03:27;;;;;;;6.32;3.67;;;;;;;29.78;35.48;99844.25;5197251;34;34376;-85
2023/06/16 14:06:29;;;;;;;3.90;3.42;;;;;;;30.03;33.59;99837.97;5208662;34;33405;-85
2023/06/16 14:09:32;;;;;;;4.30;3.25;;;;;;;30.74;33.57;99834.22;5233873;33;33247;-85
2023/06/16 14:12:35;;;;;;;4.70;4.20;;;;;;;30.45;33.45;99823.72;5254230;33;33335;-85
2023/06/16 14:15:38;;;;;;;4.37;3.58;;;;;;;29.59;34.79;99823.03;5251861;33;32920;-85
2023/06/16 14:18:41;;;;;;;10.75;4.18;;;;;;;29.13;35.19;99826.19;5223982;33;34190;-85
2023/06/16 14:21:44;;;;;;;5.85;4.10;;;;;;;29.01;35.58;99828.69;5224192;34;34098;-85
2023/06/16 14:24:47;;;;;;;9.88;4.15;;;;;;;28.86;35.92;99824.31;5247823;33;33416;-85
2023/06/16 14:27:50;;;;;;;6.85;3.78;;;;;;;28.40;37.69;99822.56;5237157;33;34149;-85
2023/06/16 14:30:52;;;;;;;7.30;4.20;;;;;;;27.98;38.62;99817.06;5234921;33;33321;-84
2023/06/16 14:33:57;;;;;;;5.65;4.30;;;;;;;27.42;39.29;99820.06;5236709;33;33217;-85
2023/06/16 14:37:00;;;;;;;5.40;4.10;;;;;;;26.45;42.79;99820.41;5225428;34;33670;-87
2023/06/16 14:40:04;;;;;;;5.80;4.22;;;;;;;25.75;46.55;99815.44;5225163;34;34503;-85
2023/06/16 14:43:07;;;;;;;6.00;3.95;;;;;;;25.57;45.79;99816.19;5238002;34;33189;-85
2023/06/16 14:46:10;;;;;;;5.45;4.32;;;;;;;25.59;44.11;99813.13;5232637;34;174446;-85
2023/06/16 14:49:13;;;;;;;7.07;4.55;;;;;;;25.78;45.84;99811.25;5225541;34;33509;-84
2023/06/16 14:52:16;;;;;;;6.70;4.30;;;;;;;26.10;45.40;99815.34;5225701;33;33093;-85
2023/06/16 14:55:18;;;;;;;5.85;4.32;;;;;;;26.32;44.05;99815.59;5242633;33;33309;-86
2023/06/16 14:58:21;;;;;;;6.72;4.53;;;;;;;26.06;45.87;99814.28;5253335;33;34223;-86
2023/06/16 15:01:24;;;;;;;8.15;5.40;;;;;;;25.28;59.37;99824.44;5241603;33;33292;-86
2023/06/16 15:04:27;;;;;;;8.77;5.35;;;;;;;24.33;58.88;99833.81;5241124;33;33163;-86
2023/06/16 15:07:30;;;;;;;10.40;6.10;;;;;;;22.51;73.73;99840.78;5241923;33;34188;-86
2023/06/16 15:10:34;;;;;;;7.62;4.43;;;;;;;20.74;86.00;99856.53;5249627;33;33434;-86
2023/06/16 15:13:37;;;;;;;6.43;5.00;;;;;;;19.38;93.62;99855.22;5254945;33;33050;-86
2023/06/16 15:16:40;;;;;;;6.32;4.50;;;;;;;18.65;100.00;99858.81;5241838;33;33284;-86
2023/06/16 15:19:42;;;;;;;7.00;4.22;;;;;;;17.89;100.00;99856.19;5254771;33;34179;-86
2023/06/16 15:22:45;;;;;;;6.62;4.75;;;;;;;17.62;100.00;99847.66;5242599;33;33335;-86
2023/06/16 15:25:48;;;;;;;7.12;4.22;;;;;;;17.44;100.00;99846.69;5253571;33;33352;-86
2023/06/16 15:28:51;;;;;;;7.15;4.07;;;;;;;17.49;100.00;99832.41;5242009;33;33932;-86
2023/06/16 15:31:54;;;;;;;7.68;4.40;;;;;;;17.43;100.00;99838.75;5254521;33;33634;-86
2023/06/16 15:34:57;;;;;;;5.90;4.70;;;;;;;17.96;100.00;99842.44;5254645;33;33039;-86
2023/06/16 15:37:59;;;;;;;6.53;4.72;;;;;;;18.39;100.00;99841.13;5254435;33;33236;-86
2023/06/16 15:41:02;;;;;;;8.95;5.18;;;;;;;18.85;100.00;99844.78;5243106;33;34177;-86
2023/06/16 15:44:05;;;;;;;9.15;5.10;;;;;;;19.20;100.00;99837.19;5256322;33;33447;-86
2023/06/16 15:47:12;;;;;;;7.82;4.68;;;;;;;19.49;100.00;99837.94;5247346;33;33830;-90
2023/06/16 15:50:15;;;;;;;6.62;4.78;;;;;;;19.68;100.00;99838.50;5244253;33;34295;-90
